<?xml version="1.0" encoding="utf-8"?>
<gpx xmlns:xsi="http://www.w3.org/2001/XMLSchema-instance" xmlns:xsd="http://www.w3.org/2001/XMLSchema" version="1.1" creator="Shapelink.com" xmlns="http://www.topografix.com/GPX/1/1" xmlns:gpxtpx="http://www.garmin.com/xmlschemas/TrackPointExtension/v1">
  <metadata>
    <name>Övrigt 1.31 km, 2019-08-06</name>
    <desc></desc>
    <author><name>Marian Moron</name></author> 
    <time>2019-08-06T20:51:25Z</time>
  </metadata>
  <trk>
    <name>Övrigt 1.31 km, 2019-08-06</name>
    <trkseg>
      <trkpt lat="51.230057465056" lon="4.458672998959">
        <ele>0</ele>
        <time>2019-08-06T20:51:25Z</time>
      </trkpt>
      <trkpt lat="51.230067942431" lon="4.45871901559">
        <ele>0</ele>
        <time>2019-08-06T20:51:28Z</time>
      </trkpt>
      <trkpt lat="51.230111947406" lon="4.458829069937">
        <ele>0</ele>
        <time>2019-08-06T20:51:43Z</time>
      </trkpt>
      <trkpt lat="51.23051897247" lon="4.458823621702">
        <ele>0.6</ele>
        <time>2019-08-06T20:52:25Z</time>
      </trkpt>
      <trkpt lat="51.230602372375" lon="4.459508506751">
        <ele>1.8</ele>
        <time>2019-08-06T20:53:06Z</time>
      </trkpt>
      <trkpt lat="51.230606228049" lon="4.459568185879">
        <ele>2</ele>
        <time>2019-08-06T20:53:11Z</time>
      </trkpt>
      <trkpt lat="51.23064805373" lon="4.459898013644">
        <ele>3.4</ele>
        <time>2019-08-06T20:53:37Z</time>
      </trkpt>
      <trkpt lat="51.230668421747" lon="4.460151985214">
        <ele>4.4</ele>
        <time>2019-08-06T20:53:55Z</time>
      </trkpt>
      <trkpt lat="51.23073522549" lon="4.460658251974">
        <ele>5.2</ele>
        <time>2019-08-06T20:54:25Z</time>
      </trkpt>
      <trkpt lat="51.230702955175" lon="4.460742573888">
        <ele>5</ele>
        <time>2019-08-06T20:54:35Z</time>
      </trkpt>
      <trkpt lat="51.230682670977" lon="4.460732850884">
        <ele>5</ele>
        <time>2019-08-06T20:54:37Z</time>
      </trkpt>
      <trkpt lat="51.230527605827" lon="4.46080946145">
        <ele>5.2</ele>
        <time>2019-08-06T20:55:31Z</time>
      </trkpt>
      <trkpt lat="51.23007389358" lon="4.460977015631">
        <ele>5.8</ele>
        <time>2019-08-06T20:56:06Z</time>
      </trkpt>
      <trkpt lat="51.229795698319" lon="4.461114981705">
        <ele>7.4</ele>
        <time>2019-08-06T20:56:30Z</time>
      </trkpt>
      <trkpt lat="51.229350870886" lon="4.461226460975">
        <ele>0</ele>
        <time>2019-08-06T20:57:14Z</time>
      </trkpt>
      <trkpt lat="51.228921549968" lon="4.461292342709">
        <ele>0</ele>
        <time>2019-08-06T20:58:10Z</time>
      </trkpt>
      <trkpt lat="51.228833791475" lon="4.461369204732">
        <ele>4.8</ele>
        <time>2019-08-06T20:58:20Z</time>
      </trkpt>
      <trkpt lat="51.22842014471" lon="4.461313381278">
        <ele>10.6</ele>
        <time>2019-08-06T20:59:19Z</time>
      </trkpt>
      <trkpt lat="51.228410421706" lon="4.461288319397">
        <ele>11</ele>
        <time>2019-08-06T20:59:22Z</time>
      </trkpt>
      <trkpt lat="51.228331128932" lon="4.460685996063">
        <ele>1.8</ele>
        <time>2019-08-06T20:59:53Z</time>
      </trkpt>
      <trkpt lat="51.228240436774" lon="4.460620533424">
        <ele>0</ele>
        <time>2019-08-06T21:00:06Z</time>
      </trkpt>
      <trkpt lat="51.228024183754" lon="4.460603685805">
        <ele>0</ele>
        <time>2019-08-06T21:00:46Z</time>
      </trkpt>
      <trkpt lat="51.227777672075" lon="4.460778532239">
        <ele>0</ele>
        <time>2019-08-06T21:01:27Z</time>
      </trkpt>
      <trkpt lat="51.227694942722" lon="4.460846593267">
        <ele>0</ele>
        <time>2019-08-06T21:01:37Z</time>
      </trkpt>
      <trkpt lat="51.227479276435" lon="4.460691025203">
        <ele>5.4</ele>
        <time>2019-08-06T21:02:41Z</time>
      </trkpt>
      <trkpt lat="51.227433762718" lon="4.460457086374">
        <ele>7.2</ele>
        <time>2019-08-06T21:02:57Z</time>
      </trkpt>
      <trkpt lat="51.227261849949" lon="4.459937911488">
        <ele>1.4</ele>
        <time>2019-08-06T21:03:38Z</time>
      </trkpt>
      <trkpt lat="51.227075604131" lon="4.459275741388">
        <ele>0</ele>
        <time>2019-08-06T21:04:17Z</time>
      </trkpt>
      <trkpt lat="51.227085913868" lon="4.459165267946">
        <ele>0</ele>
        <time>2019-08-06T21:04:36Z</time>
      </trkpt>
      <trkpt lat="51.227503919221" lon="4.458892185644">
        <ele>0</ele>
        <time>2019-08-06T21:05:25Z</time>
      </trkpt>
      <trkpt lat="51.227891665915" lon="4.458679955936">
        <ele>0</ele>
        <time>2019-08-06T21:06:34Z</time>
      </trkpt>
      <trkpt lat="51.228310006544" lon="4.458381895572">
        <ele>0</ele>
        <time>2019-08-06T21:07:21Z</time>
      </trkpt>
      <trkpt lat="51.228415199389" lon="4.458328502869">
        <ele>0</ele>
        <time>2019-08-06T21:08:05Z</time>
      </trkpt>
      <trkpt lat="51.228489463023" lon="4.458196320306">
        <ele>0</ele>
        <time>2019-08-06T21:08:19Z</time>
      </trkpt>
      <trkpt lat="51.228491307041" lon="4.457774040184">
        <ele>0</ele>
        <time>2019-08-06T21:08:47Z</time>
      </trkpt>
      <trkpt lat="51.228684258379" lon="4.457275149496">
        <ele>0</ele>
        <time>2019-08-06T21:09:35Z</time>
      </trkpt>
      <trkpt lat="51.229091283443" lon="4.456900394747">
        <ele>3.6</ele>
        <time>2019-08-06T21:10:16Z</time>
      </trkpt>
      <trkpt lat="51.229152555132" lon="4.456855300125">
        <ele>7</ele>
        <time>2019-08-06T21:10:26Z</time>
      </trkpt>
      <trkpt lat="51.229593191615" lon="4.456686069564">
        <ele>12</ele>
        <time>2019-08-06T21:11:06Z</time>
      </trkpt>
      <trkpt lat="51.229630155794" lon="4.456689506143">
        <ele>12.6</ele>
        <time>2019-08-06T21:11:09Z</time>
      </trkpt>
      <trkpt lat="51.229698049184" lon="4.456788831658">
        <ele>12</ele>
        <time>2019-08-06T21:11:13Z</time>
      </trkpt>
      <trkpt lat="51.229775162664" lon="4.457489558498">
        <ele>12.2</ele>
        <time>2019-08-06T21:11:38Z</time>
      </trkpt>
      <trkpt lat="51.229809528454" lon="4.457605144899">
        <ele>6.8</ele>
        <time>2019-08-06T21:11:47Z</time>
      </trkpt>
      <trkpt lat="51.229874571998" lon="4.457763730447">
        <ele>0</ele>
        <time>2019-08-06T21:12:04Z</time>
      </trkpt>
      <trkpt lat="51.229829477376" lon="4.457935559397">
        <ele>0</ele>
        <time>2019-08-06T21:12:48Z</time>
      </trkpt>
      <trkpt lat="51.229713807156" lon="4.457962297658">
        <ele>0</ele>
        <time>2019-08-06T21:14:18Z</time>
      </trkpt>
    </trkseg>
  </trk>
</gpx>